sensor_id;sensor_type;location;lat;lon;timestamp;temperature;humidity
8676;DHT22;4375;52.486;13.424;2023-02-07T00:01:06;-1.00;99.90
8676;DHT22;4375;52.486;13.424;2023-02-07T00:03:31;-0.90;99.90
8676;DHT22;4375;52.486;13.424;2023-02-07T00:06:07;-0.90;99.90
8676;DHT22;4375;52.486;13.424;2023-02-07T00:08:35;-0.90;99.90
8676;DHT22;4375;52.486;13.424;2023-02-07T00:11:05;-1.00;99.90
8676;DHT22;4375;52.486;13.424;2023-02-07T00:13:32;-1.00;99.90
8676;DHT22;4375;52.486;13.424;2023-02-07T00:15:58;-1.10;99.90
8676;DHT22;4375;52.486;13.424;2023-02-07T00:18:24;-1.10;99.90
8676;DHT22;4375;52.486;13.424;2023-02-07T00:21:05;-1.10;99.90
8676;DHT22;4375;52.486;13.424;2023-02-07T00:23:32;-1.10;99.90
8676;DHT22;4375;52.486;13.424;2023-02-07T00:25:58;-1.10;99.90
8676;DHT22;4375;52.486;13.424;2023-02-07T00:28:24;-1.10;99.90
8676;DHT22;4375;52.486;13.424;2023-02-07T00:30:50;-1.10;99.90
8676;DHT22;4375;52.486;13.424;2023-02-07T00:33:16;-1.10;99.90
8676;DHT22;4375;52.486;13.424;2023-02-07T00:35:42;-1.10;99.90
8676;DHT22;4375;52.486;13.424;2023-02-07T00:38:08;-1.10;99.90
8676;DHT22;4375;52.486;13.424;2023-02-07T00:40:34;-1.30;99.90
8676;DHT22;4375;52.486;13.424;2023-02-07T00:42:59;-1.30;99.90
8676;DHT22;4375;52.486;13.424;2023-02-07T00:45:25;-1.30;99.90
8676;DHT22;4375;52.486;13.424;2023-02-07T00:47:50;-1.40;99.90
8676;DHT22;4375;52.486;13.424;2023-02-07T00:50:16;-1.30;99.90
8676;DHT22;4375;52.486;13.424;2023-02-07T00:52:42;-1.30;99.90
8676;DHT22;4375;52.486;13.424;2023-02-07T00:55:07;-1.40;99.90
8676;DHT22;4375;52.486;13.424;2023-02-07T00:57:33;-1.40;99.90
8676;DHT22;4375;52.486;13.424;2023-02-07T00:59:59;-1.60;99.90
8676;DHT22;4375;52.486;13.424;2023-02-07T01:02:24;-1.70;99.90
8676;DHT22;4375;52.486;13.424;2023-02-07T01:04:50;-1.70;99.90
8676;DHT22;4375;52.486;13.424;2023-02-07T01:07:15;-1.70;99.90
8676;DHT22;4375;52.486;13.424;2023-02-07T01:09:41;-1.70;99.90
8676;DHT22;4375;52.486;13.424;2023-02-07T01:12:06;-1.70;99.90
8676;DHT22;4375;52.486;13.424;2023-02-07T01:14:32;-1.40;99.90
8676;DHT22;4375;52.486;13.424;2023-02-07T01:16:58;-1.40;99.90
8676;DHT22;4375;52.486;13.424;2023-02-07T01:19:23;-1.40;99.90
8676;DHT22;4375;52.486;13.424;2023-02-07T01:21:49;-1.50;99.90
8676;DHT22;4375;52.486;13.424;2023-02-07T01:24:15;-1.50;99.90
8676;DHT22;4375;52.486;13.424;2023-02-07T01:26:41;-1.50;99.90
8676;DHT22;4375;52.486;13.424;2023-02-07T01:29:08;-1.60;99.90
8676;DHT22;4375;52.486;13.424;2023-02-07T01:31:34;-1.60;99.90
8676;DHT22;4375;52.486;13.424;2023-02-07T01:34:00;-1.60;99.90
8676;DHT22;4375;52.486;13.424;2023-02-07T01:36:27;-1.60;99.90
8676;DHT22;4375;52.486;13.424;2023-02-07T01:38:54;-1.60;99.90
8676;DHT22;4375;52.486;13.424;2023-02-07T01:41:21;-1.60;99.90
8676;DHT22;4375;52.486;13.424;2023-02-07T01:43:56;-1.70;99.90
8676;DHT22;4375;52.486;13.424;2023-02-07T01:46:22;-1.80;99.90
8676;DHT22;4375;52.486;13.424;2023-02-07T01:48:48;-1.80;99.90
8676;DHT22;4375;52.486;13.424;2023-02-07T01:51:15;-1.70;99.90
8676;DHT22;4375;52.486;13.424;2023-02-07T01:53:41;-1.80;99.90
8676;DHT22;4375;52.486;13.424;2023-02-07T01:56:09;-1.90;99.90
8676;DHT22;4375;52.486;13.424;2023-02-07T01:58:36;-1.90;99.90
8676;DHT22;4375;52.486;13.424;2023-02-07T02:01:05;-2.00;99.90
8676;DHT22;4375;52.486;13.424;2023-02-07T02:03:33;-2.00;99.90
8676;DHT22;4375;52.486;13.424;2023-02-07T02:06:00;-2.00;99.90
8676;DHT22;4375;52.486;13.424;2023-02-07T02:08:26;-2.00;99.90
8676;DHT22;4375;52.486;13.424;2023-02-07T02:11:16;-2.00;99.90
8676;DHT22;4375;52.486;13.424;2023-02-07T02:17:08;-1.90;99.90
8676;DHT22;4375;52.486;13.424;2023-02-07T02:22:42;-1.90;99.90
8676;DHT22;4375;52.486;13.424;2023-02-07T02:25:33;-1.90;99.90
8676;DHT22;4375;52.486;13.424;2023-02-07T02:36:44;-1.80;99.90
8676;DHT22;4375;52.486;13.424;2023-02-07T02:39:22;-1.70;99.90
8676;DHT22;4375;52.486;13.424;2023-02-07T02:42:16;-1.70;99.90
8676;DHT22;4375;52.486;13.424;2023-02-07T02:44:54;-1.80;99.90
8676;DHT22;4375;52.486;13.424;2023-02-07T02:47:21;-1.80;99.90
8676;DHT22;4375;52.486;13.424;2023-02-07T02:49:48;-1.90;99.90
8676;DHT22;4375;52.486;13.424;2023-02-07T02:52:15;-1.90;99.90
8676;DHT22;4375;52.486;13.424;2023-02-07T02:54:41;-1.90;99.90
8676;DHT22;4375;52.486;13.424;2023-02-07T02:57:23;-1.80;99.90
8676;DHT22;4375;52.486;13.424;2023-02-07T03:03:09;-1.80;99.90
8676;DHT22;4375;52.486;13.424;2023-02-07T03:08:45;-1.90;99.90
8676;DHT22;4375;52.486;13.424;2023-02-07T03:11:16;-1.90;99.90
8676;DHT22;4375;52.486;13.424;2023-02-07T03:16:21;-2.00;99.90
8676;DHT22;4375;52.486;13.424;2023-02-07T03:18:56;-2.00;99.90
8676;DHT22;4375;52.486;13.424;2023-02-07T03:24:49;-2.10;99.90
8676;DHT22;4375;52.486;13.424;2023-02-07T03:27:17;-2.00;99.90
8676;DHT22;4375;52.486;13.424;2023-02-07T03:29:48;-2.10;99.90
8676;DHT22;4375;52.486;13.424;2023-02-07T03:32:15;-2.00;99.90
8676;DHT22;4375;52.486;13.424;2023-02-07T03:34:52;-2.10;99.90
8676;DHT22;4375;52.486;13.424;2023-02-07T03:39:48;-2.00;99.90
8676;DHT22;4375;52.486;13.424;2023-02-07T03:42:33;-2.10;99.90
8676;DHT22;4375;52.486;13.424;2023-02-07T03:45:00;-2.00;99.90
8676;DHT22;4375;52.486;13.424;2023-02-07T03:47:28;-2.10;99.90
8676;DHT22;4375;52.486;13.424;2023-02-07T03:49:54;-2.20;99.90
8676;DHT22;4375;52.486;13.424;2023-02-07T03:52:19;-2.20;99.90
8676;DHT22;4375;52.486;13.424;2023-02-07T03:54:45;-2.20;99.90
8676;DHT22;4375;52.486;13.424;2023-02-07T03:57:11;-2.20;99.90
8676;DHT22;4375;52.486;13.424;2023-02-07T03:59:37;-2.10;99.90
8676;DHT22;4375;52.486;13.424;2023-02-07T04:02:02;-2.10;99.90
8676;DHT22;4375;52.486;13.424;2023-02-07T04:04:29;-2.20;99.90
8676;DHT22;4375;52.486;13.424;2023-02-07T04:06:54;-2.30;99.90
8676;DHT22;4375;52.486;13.424;2023-02-07T04:09:21;-2.30;99.90
8676;DHT22;4375;52.486;13.424;2023-02-07T04:11:50;-2.40;99.90
8676;DHT22;4375;52.486;13.424;2023-02-07T04:14:16;-2.30;99.90
8676;DHT22;4375;52.486;13.424;2023-02-07T04:16:44;-2.30;99.90
8676;DHT22;4375;52.486;13.424;2023-02-07T04:19:10;-2.40;99.90
8676;DHT22;4375;52.486;13.424;2023-02-07T04:21:36;-2.40;99.90
8676;DHT22;4375;52.486;13.424;2023-02-07T04:24:01;-2.40;99.90
8676;DHT22;4375;52.486;13.424;2023-02-07T04:26:27;-2.40;99.90
8676;DHT22;4375;52.486;13.424;2023-02-07T04:28:53;-2.40;99.90
8676;DHT22;4375;52.486;13.424;2023-02-07T04:31:18;-2.40;99.90
8676;DHT22;4375;52.486;13.424;2023-02-07T04:33:44;-2.40;99.90
8676;DHT22;4375;52.486;13.424;2023-02-07T04:36:09;-2.40;99.90
8676;DHT22;4375;52.486;13.424;2023-02-07T04:38:35;-2.40;99.90
8676;DHT22;4375;52.486;13.424;2023-02-07T04:41:02;-2.30;99.90
8676;DHT22;4375;52.486;13.424;2023-02-07T04:43:30;-2.30;99.90
8676;DHT22;4375;52.486;13.424;2023-02-07T04:45:56;-2.40;99.90
8676;DHT22;4375;52.486;13.424;2023-02-07T04:48:22;-2.40;99.90
8676;DHT22;4375;52.486;13.424;2023-02-07T04:50:47;-2.40;99.90
8676;DHT22;4375;52.486;13.424;2023-02-07T04:53:13;-2.40;99.90
8676;DHT22;4375;52.486;13.424;2023-02-07T04:55:39;-2.30;99.90
8676;DHT22;4375;52.486;13.424;2023-02-07T04:58:05;-2.30;99.90
8676;DHT22;4375;52.486;13.424;2023-02-07T05:00:32;-2.40;99.90
8676;DHT22;4375;52.486;13.424;2023-02-07T05:02:58;-2.30;99.90
8676;DHT22;4375;52.486;13.424;2023-02-07T05:05:24;-2.30;99.90
8676;DHT22;4375;52.486;13.424;2023-02-07T05:07:49;-2.50;99.90
8676;DHT22;4375;52.486;13.424;2023-02-07T05:10:15;-2.50;99.90
8676;DHT22;4375;52.486;13.424;2023-02-07T05:12:41;-2.60;99.90
8676;DHT22;4375;52.486;13.424;2023-02-07T05:15:07;-2.60;99.90
8676;DHT22;4375;52.486;13.424;2023-02-07T05:17:33;-2.60;99.90
8676;DHT22;4375;52.486;13.424;2023-02-07T05:20:00;-2.50;99.90
8676;DHT22;4375;52.486;13.424;2023-02-07T05:22:26;-2.50;99.90
8676;DHT22;4375;52.486;13.424;2023-02-07T05:24:51;-2.60;99.90
8676;DHT22;4375;52.486;13.424;2023-02-07T05:27:17;-2.60;99.90
8676;DHT22;4375;52.486;13.424;2023-02-07T05:29:42;-2.50;99.90
8676;DHT22;4375;52.486;13.424;2023-02-07T05:32:13;-2.50;99.90
8676;DHT22;4375;52.486;13.424;2023-02-07T05:34:58;-2.50;99.90
8676;DHT22;4375;52.486;13.424;2023-02-07T05:37:25;-2.50;99.90
8676;DHT22;4375;52.486;13.424;2023-02-07T05:39:50;-2.50;99.90
8676;DHT22;4375;52.486;13.424;2023-02-07T05:42:16;-2.60;99.90
8676;DHT22;4375;52.486;13.424;2023-02-07T05:44:42;-2.50;99.90
8676;DHT22;4375;52.486;13.424;2023-02-07T05:47:07;-2.40;99.90
8676;DHT22;4375;52.486;13.424;2023-02-07T05:49:33;-2.50;99.90
8676;DHT22;4375;52.486;13.424;2023-02-07T05:51:59;-2.50;99.90
8676;DHT22;4375;52.486;13.424;2023-02-07T05:54:24;-2.50;99.90
8676;DHT22;4375;52.486;13.424;2023-02-07T05:56:50;-2.60;99.90
8676;DHT22;4375;52.486;13.424;2023-02-07T05:59:16;-2.60;99.90
8676;DHT22;4375;52.486;13.424;2023-02-07T06:01:41;-2.60;99.90
8676;DHT22;4375;52.486;13.424;2023-02-07T06:04:07;-2.60;99.90
8676;DHT22;4375;52.486;13.424;2023-02-07T06:06:32;-2.70;99.90
8676;DHT22;4375;52.486;13.424;2023-02-07T06:08:58;-2.70;99.90
8676;DHT22;4375;52.486;13.424;2023-02-07T06:11:24;-2.80;99.90
8676;DHT22;4375;52.486;13.424;2023-02-07T06:13:49;-2.90;99.90
8676;DHT22;4375;52.486;13.424;2023-02-07T06:16:15;-3.00;99.90
8676;DHT22;4375;52.486;13.424;2023-02-07T06:18:40;-3.10;99.90
8676;DHT22;4375;52.486;13.424;2023-02-07T06:21:06;-3.20;99.90
8676;DHT22;4375;52.486;13.424;2023-02-07T06:23:32;-3.20;99.90
8676;DHT22;4375;52.486;13.424;2023-02-07T06:25:57;-3.20;99.90
8676;DHT22;4375;52.486;13.424;2023-02-07T06:28:23;-3.20;99.90
8676;DHT22;4375;52.486;13.424;2023-02-07T06:30:52;-3.20;99.90
8676;DHT22;4375;52.486;13.424;2023-02-07T06:33:18;-3.30;99.90
8676;DHT22;4375;52.486;13.424;2023-02-07T06:35:44;-3.20;99.90
8676;DHT22;4375;52.486;13.424;2023-02-07T06:38:16;-3.30;99.90
8676;DHT22;4375;52.486;13.424;2023-02-07T06:40:43;-3.40;99.90
8676;DHT22;4375;52.486;13.424;2023-02-07T06:43:09;-3.40;99.90
8676;DHT22;4375;52.486;13.424;2023-02-07T06:45:35;-3.40;99.90
8676;DHT22;4375;52.486;13.424;2023-02-07T06:48:01;-3.40;99.90
8676;DHT22;4375;52.486;13.424;2023-02-07T06:50:27;-3.40;99.90
8676;DHT22;4375;52.486;13.424;2023-02-07T06:52:53;-3.50;99.90
8676;DHT22;4375;52.486;13.424;2023-02-07T06:55:19;-3.30;99.90
8676;DHT22;4375;52.486;13.424;2023-02-07T06:57:45;-3.20;99.90
8676;DHT22;4375;52.486;13.424;2023-02-07T07:00:11;-3.20;99.90
8676;DHT22;4375;52.486;13.424;2023-02-07T07:02:36;-3.30;99.90
8676;DHT22;4375;52.486;13.424;2023-02-07T07:05:02;-3.20;99.90
8676;DHT22;4375;52.486;13.424;2023-02-07T07:07:28;-3.30;99.90
8676;DHT22;4375;52.486;13.424;2023-02-07T07:09:53;-3.20;99.90
8676;DHT22;4375;52.486;13.424;2023-02-07T07:12:19;-3.10;99.90
8676;DHT22;4375;52.486;13.424;2023-02-07T07:14:45;-3.10;99.90
8676;DHT22;4375;52.486;13.424;2023-02-07T07:17:11;-3.10;99.90
8676;DHT22;4375;52.486;13.424;2023-02-07T07:19:37;-3.20;99.90
8676;DHT22;4375;52.486;13.424;2023-02-07T07:22:03;-3.20;99.90
8676;DHT22;4375;52.486;13.424;2023-02-07T07:24:28;-3.10;99.90
8676;DHT22;4375;52.486;13.424;2023-02-07T07:26:54;-3.00;99.90
8676;DHT22;4375;52.486;13.424;2023-02-07T07:29:21;-3.10;99.90
8676;DHT22;4375;52.486;13.424;2023-02-07T07:31:47;-3.10;99.90
8676;DHT22;4375;52.486;13.424;2023-02-07T07:34:13;-3.00;99.90
8676;DHT22;4375;52.486;13.424;2023-02-07T07:36:38;-3.00;99.90
8676;DHT22;4375;52.486;13.424;2023-02-07T07:39:04;-3.00;99.90
8676;DHT22;4375;52.486;13.424;2023-02-07T07:41:30;-3.00;99.90
8676;DHT22;4375;52.486;13.424;2023-02-07T07:43:55;-2.90;99.90
8676;DHT22;4375;52.486;13.424;2023-02-07T07:46:21;-2.90;99.90
8676;DHT22;4375;52.486;13.424;2023-02-07T07:48:47;-2.80;99.90
8676;DHT22;4375;52.486;13.424;2023-02-07T07:51:12;-2.70;99.90
8676;DHT22;4375;52.486;13.424;2023-02-07T07:53:38;-2.80;99.90
8676;DHT22;4375;52.486;13.424;2023-02-07T07:56:04;-2.70;99.90
8676;DHT22;4375;52.486;13.424;2023-02-07T07:58:30;-2.60;99.90
8676;DHT22;4375;52.486;13.424;2023-02-07T08:00:55;-2.70;99.90
8676;DHT22;4375;52.486;13.424;2023-02-07T08:03:22;-2.60;99.90
8676;DHT22;4375;52.486;13.424;2023-02-07T08:05:48;-2.60;99.90
8676;DHT22;4375;52.486;13.424;2023-02-07T08:08:15;-2.70;99.90
8676;DHT22;4375;52.486;13.424;2023-02-07T08:10:41;-2.80;99.90
8676;DHT22;4375;52.486;13.424;2023-02-07T08:13:07;-2.70;99.90
8676;DHT22;4375;52.486;13.424;2023-02-07T08:15:33;-2.50;99.90
8676;DHT22;4375;52.486;13.424;2023-02-07T08:17:58;-2.50;99.90
8676;DHT22;4375;52.486;13.424;2023-02-07T08:20:24;-2.40;99.90
8676;DHT22;4375;52.486;13.424;2023-02-07T08:22:50;-2.30;99.90
8676;DHT22;4375;52.486;13.424;2023-02-07T08:25:15;-2.30;99.90
8676;DHT22;4375;52.486;13.424;2023-02-07T08:27:42;-2.20;99.90
8676;DHT22;4375;52.486;13.424;2023-02-07T08:30:09;-2.20;99.90
8676;DHT22;4375;52.486;13.424;2023-02-07T08:32:35;-2.10;99.90
8676;DHT22;4375;52.486;13.424;2023-02-07T08:35:01;-2.00;99.90
8676;DHT22;4375;52.486;13.424;2023-02-07T08:37:26;-2.10;99.90
8676;DHT22;4375;52.486;13.424;2023-02-07T08:39:52;-2.00;99.90
8676;DHT22;4375;52.486;13.424;2023-02-07T08:42:21;-2.00;99.90
8676;DHT22;4375;52.486;13.424;2023-02-07T08:44:49;-1.90;99.90
8676;DHT22;4375;52.486;13.424;2023-02-07T08:47:16;-1.70;99.90
8676;DHT22;4375;52.486;13.424;2023-02-07T08:49:42;-1.70;99.90
8676;DHT22;4375;52.486;13.424;2023-02-07T08:52:08;-1.60;99.90
8676;DHT22;4375;52.486;13.424;2023-02-07T08:54:35;-1.50;99.90
8676;DHT22;4375;52.486;13.424;2023-02-07T08:57:01;-1.40;99.90
8676;DHT22;4375;52.486;13.424;2023-02-07T08:59:26;-1.30;99.90
8676;DHT22;4375;52.486;13.424;2023-02-07T09:01:52;-1.10;99.90
8676;DHT22;4375;52.486;13.424;2023-02-07T09:04:17;-1.10;99.90
8676;DHT22;4375;52.486;13.424;2023-02-07T09:06:43;-1.00;99.90
8676;DHT22;4375;52.486;13.424;2023-02-07T09:09:09;-0.90;99.90
8676;DHT22;4375;52.486;13.424;2023-02-07T09:11:35;-0.80;99.90
8676;DHT22;4375;52.486;13.424;2023-02-07T09:14:01;-0.70;99.90
8676;DHT22;4375;52.486;13.424;2023-02-07T09:16:26;-0.50;99.90
8676;DHT22;4375;52.486;13.424;2023-02-07T09:18:52;-0.50;99.90
8676;DHT22;4375;52.486;13.424;2023-02-07T09:21:18;-0.40;99.90
8676;DHT22;4375;52.486;13.424;2023-02-07T09:23:44;-0.40;99.90
8676;DHT22;4375;52.486;13.424;2023-02-07T09:26:16;-0.40;99.90
8676;DHT22;4375;52.486;13.424;2023-02-07T09:28:42;-0.20;99.90
8676;DHT22;4375;52.486;13.424;2023-02-07T09:31:09;-0.20;99.90
8676;DHT22;4375;52.486;13.424;2023-02-07T09:33:35;-0.10;99.90
8676;DHT22;4375;52.486;13.424;2023-02-07T09:36:01;0.00;99.90
8676;DHT22;4375;52.486;13.424;2023-02-07T09:38:27;0.30;99.90
8676;DHT22;4375;52.486;13.424;2023-02-07T09:40:54;0.40;99.90
8676;DHT22;4375;52.486;13.424;2023-02-07T09:46:04;0.80;99.90
8676;DHT22;4375;52.486;13.424;2023-02-07T09:48:54;0.90;99.90
8676;DHT22;4375;52.486;13.424;2023-02-07T09:51:23;0.90;99.90
8676;DHT22;4375;52.486;13.424;2023-02-07T09:53:53;0.80;99.90
8676;DHT22;4375;52.486;13.424;2023-02-07T09:56:22;0.90;99.90
8676;DHT22;4375;52.486;13.424;2023-02-07T10:01:43;0.90;99.90
8676;DHT22;4375;52.486;13.424;2023-02-07T10:06:49;1.00;99.90
8676;DHT22;4375;52.486;13.424;2023-02-07T10:09:23;1.10;99.90
8676;DHT22;4375;52.486;13.424;2023-02-07T10:29:12;1.40;99.90
8676;DHT22;4375;52.486;13.424;2023-02-07T10:31:20;1.50;99.90
8676;DHT22;4375;52.486;13.424;2023-02-07T10:34:00;1.40;99.90
8676;DHT22;4375;52.486;13.424;2023-02-07T10:36:31;1.50;99.90
8676;DHT22;4375;52.486;13.424;2023-02-07T10:39:05;1.60;99.90
8676;DHT22;4375;52.486;13.424;2023-02-07T10:41:37;1.50;99.90
8676;DHT22;4375;52.486;13.424;2023-02-07T10:44:10;1.60;99.90
8676;DHT22;4375;52.486;13.424;2023-02-07T10:46:37;1.60;99.90
8676;DHT22;4375;52.486;13.424;2023-02-07T10:49:05;1.60;99.90
8676;DHT22;4375;52.486;13.424;2023-02-07T10:51:43;1.60;99.90
8676;DHT22;4375;52.486;13.424;2023-02-07T10:54:12;1.70;99.90
8676;DHT22;4375;52.486;13.424;2023-02-07T10:56:44;1.80;99.90
8676;DHT22;4375;52.486;13.424;2023-02-07T11:01:54;1.80;99.90
8676;DHT22;4375;52.486;13.424;2023-02-07T11:07:00;1.80;99.90
8676;DHT22;4375;52.486;13.424;2023-02-07T11:09:30;1.80;99.90
8676;DHT22;4375;52.486;13.424;2023-02-07T11:11:57;1.90;99.90
8676;DHT22;4375;52.486;13.424;2023-02-07T11:14:25;1.90;99.90
8676;DHT22;4375;52.486;13.424;2023-02-07T11:16:56;1.90;99.90
8676;DHT22;4375;52.486;13.424;2023-02-07T11:19:27;2.00;99.90
8676;DHT22;4375;52.486;13.424;2023-02-07T11:24:35;2.00;99.90
8676;DHT22;4375;52.486;13.424;2023-02-07T11:27:17;2.00;99.90
8676;DHT22;4375;52.486;13.424;2023-02-07T11:32:15;2.10;99.90
8676;DHT22;4375;52.486;13.424;2023-02-07T11:34:50;2.10;99.90
8676;DHT22;4375;52.486;13.424;2023-02-07T11:37:40;2.10;99.90
8676;DHT22;4375;52.486;13.424;2023-02-07T11:43:00;2.20;99.90
8676;DHT22;4375;52.486;13.424;2023-02-07T11:45:27;2.20;99.90
8676;DHT22;4375;52.486;13.424;2023-02-07T11:47:55;2.10;99.90
8676;DHT22;4375;52.486;13.424;2023-02-07T11:50:46;2.20;99.90
8676;DHT22;4375;52.486;13.424;2023-02-07T11:53:21;2.20;99.90
8676;DHT22;4375;52.486;13.424;2023-02-07T11:55:51;2.30;99.90
8676;DHT22;4375;52.486;13.424;2023-02-07T11:58:30;2.40;99.90
8676;DHT22;4375;52.486;13.424;2023-02-07T12:00:56;2.40;99.90
8676;DHT22;4375;52.486;13.424;2023-02-07T12:03:27;2.40;99.90
8676;DHT22;4375;52.486;13.424;2023-02-07T12:05:56;2.50;99.90
8676;DHT22;4375;52.486;13.424;2023-02-07T12:08:26;2.50;99.90
8676;DHT22;4375;52.486;13.424;2023-02-07T12:10:58;2.50;99.90
8676;DHT22;4375;52.486;13.424;2023-02-07T12:13:40;2.60;99.90
8676;DHT22;4375;52.486;13.424;2023-02-07T12:16:23;2.50;99.90
8676;DHT22;4375;52.486;13.424;2023-02-07T12:19:16;2.50;99.90
8676;DHT22;4375;52.486;13.424;2023-02-07T12:24:25;2.40;99.90
8676;DHT22;4375;52.486;13.424;2023-02-07T12:27:00;2.40;99.90
8676;DHT22;4375;52.486;13.424;2023-02-07T12:29:48;2.40;99.90
8676;DHT22;4375;52.486;13.424;2023-02-07T12:40:33;2.60;99.90
8676;DHT22;4375;52.486;13.424;2023-02-07T12:43:06;2.70;99.90
8676;DHT22;4375;52.486;13.424;2023-02-07T12:56:28;2.80;99.90
8676;DHT22;4375;52.486;13.424;2023-02-07T12:59:01;2.80;99.90
8676;DHT22;4375;52.486;13.424;2023-02-07T13:01:48;2.80;99.90
8676;DHT22;4375;52.486;13.424;2023-02-07T13:07:40;2.80;99.90
8676;DHT22;4375;52.486;13.424;2023-02-07T13:12:57;2.90;99.90
8676;DHT22;4375;52.486;13.424;2023-02-07T13:18:09;2.90;99.90
8676;DHT22;4375;52.486;13.424;2023-02-07T13:23:15;2.80;99.90
8676;DHT22;4375;52.486;13.424;2023-02-07T13:25:44;2.80;99.90
8676;DHT22;4375;52.486;13.424;2023-02-07T13:28:17;2.70;99.90
8676;DHT22;4375;52.486;13.424;2023-02-07T13:30:44;2.70;99.90
8676;DHT22;4375;52.486;13.424;2023-02-07T13:33:34;2.70;99.90
8676;DHT22;4375;52.486;13.424;2023-02-07T13:39:00;2.70;99.90
8676;DHT22;4375;52.486;13.424;2023-02-07T13:47:26;2.80;99.90
8676;DHT22;4375;52.486;13.424;2023-02-07T13:52:33;2.80;99.90
8676;DHT22;4375;52.486;13.424;2023-02-07T13:57:51;2.70;99.90
8676;DHT22;4375;52.486;13.424;2023-02-07T14:01:08;2.70;99.90
8676;DHT22;4375;52.486;13.424;2023-02-07T14:03:39;2.80;99.90
8676;DHT22;4375;52.486;13.424;2023-02-07T14:06:21;2.70;99.90
8676;DHT22;4375;52.486;13.424;2023-02-07T14:11:41;2.80;99.90
8676;DHT22;4375;52.486;13.424;2023-02-07T14:17:02;2.70;99.90
8676;DHT22;4375;52.486;13.424;2023-02-07T14:22:25;2.70;99.90
8676;DHT22;4375;52.486;13.424;2023-02-07T14:32:28;2.80;99.90
8676;DHT22;4375;52.486;13.424;2023-02-07T14:37:48;2.80;99.90
8676;DHT22;4375;52.486;13.424;2023-02-07T14:40:27;2.80;99.90
8676;DHT22;4375;52.486;13.424;2023-02-07T14:43:06;2.70;99.90
8676;DHT22;4375;52.486;13.424;2023-02-07T14:46:01;2.70;99.90
8676;DHT22;4375;52.486;13.424;2023-02-07T14:49:01;2.70;99.90
8676;DHT22;4375;52.486;13.424;2023-02-07T14:51:31;2.80;99.90
8676;DHT22;4375;52.486;13.424;2023-02-07T14:56:51;2.80;99.90
8676;DHT22;4375;52.486;13.424;2023-02-07T14:59:27;2.80;99.90
8676;DHT22;4375;52.486;13.424;2023-02-07T15:01:56;2.70;99.90
8676;DHT22;4375;52.486;13.424;2023-02-07T15:04:21;2.70;99.90
8676;DHT22;4375;52.486;13.424;2023-02-07T15:06:47;2.60;99.90
8676;DHT22;4375;52.486;13.424;2023-02-07T15:09:24;2.60;99.90
8676;DHT22;4375;52.486;13.424;2023-02-07T15:11:52;2.60;99.90
8676;DHT22;4375;52.486;13.424;2023-02-07T15:14:29;2.60;99.90
8676;DHT22;4375;52.486;13.424;2023-02-07T15:16:56;2.60;99.90
8676;DHT22;4375;52.486;13.424;2023-02-07T15:19:41;2.60;99.90
8676;DHT22;4375;52.486;13.424;2023-02-07T15:22:07;2.60;99.90
8676;DHT22;4375;52.486;13.424;2023-02-07T15:24:35;2.60;99.90
8676;DHT22;4375;52.486;13.424;2023-02-07T15:27:04;2.60;99.90
8676;DHT22;4375;52.486;13.424;2023-02-07T15:29:33;2.60;99.90
8676;DHT22;4375;52.486;13.424;2023-02-07T15:31:59;2.60;99.90
8676;DHT22;4375;52.486;13.424;2023-02-07T15:34:30;2.60;99.90
8676;DHT22;4375;52.486;13.424;2023-02-07T15:37:11;2.60;99.90
8676;DHT22;4375;52.486;13.424;2023-02-07T15:39:38;2.50;99.90
8676;DHT22;4375;52.486;13.424;2023-02-07T15:42:03;2.50;99.90
8676;DHT22;4375;52.486;13.424;2023-02-07T15:44:31;2.50;99.90
8676;DHT22;4375;52.486;13.424;2023-02-07T15:47:00;2.40;99.90
8676;DHT22;4375;52.486;13.424;2023-02-07T15:49:32;2.40;99.90
8676;DHT22;4375;52.486;13.424;2023-02-07T15:54:42;2.40;99.90
8676;DHT22;4375;52.486;13.424;2023-02-07T15:57:16;2.40;99.90
8676;DHT22;4375;52.486;13.424;2023-02-07T15:59:48;2.40;99.90
8676;DHT22;4375;52.486;13.424;2023-02-07T16:02:30;2.30;99.90
8676;DHT22;4375;52.486;13.424;2023-02-07T16:05:33;2.30;99.90
8676;DHT22;4375;52.486;13.424;2023-02-07T16:08:03;2.30;99.90
8676;DHT22;4375;52.486;13.424;2023-02-07T16:10:37;2.30;99.90
8676;DHT22;4375;52.486;13.424;2023-02-07T16:15:37;2.20;99.90
8676;DHT22;4375;52.486;13.424;2023-02-07T16:18:04;2.10;99.90
8676;DHT22;4375;52.486;13.424;2023-02-07T16:20:33;2.10;99.90
8676;DHT22;4375;52.486;13.424;2023-02-07T16:23:05;2.00;99.90
8676;DHT22;4375;52.486;13.424;2023-02-07T16:25:33;2.00;99.90
8676;DHT22;4375;52.486;13.424;2023-02-07T16:28:00;2.00;99.90
8676;DHT22;4375;52.486;13.424;2023-02-07T16:30:31;1.90;99.90
8676;DHT22;4375;52.486;13.424;2023-02-07T16:32:57;1.80;99.90
8676;DHT22;4375;52.486;13.424;2023-02-07T16:35:25;1.70;99.90
8676;DHT22;4375;52.486;13.424;2023-02-07T16:37:51;1.80;99.90
8676;DHT22;4375;52.486;13.424;2023-02-07T16:40:18;1.90;99.90
8676;DHT22;4375;52.486;13.424;2023-02-07T16:42:44;1.80;99.90
8676;DHT22;4375;52.486;13.424;2023-02-07T16:45:20;1.80;99.90
8676;DHT22;4375;52.486;13.424;2023-02-07T16:47:46;1.80;99.90
8676;DHT22;4375;52.486;13.424;2023-02-07T16:50:26;1.80;99.90
8676;DHT22;4375;52.486;13.424;2023-02-07T16:52:53;1.70;99.90
8676;DHT22;4375;52.486;13.424;2023-02-07T16:55:23;1.70;99.90
8676;DHT22;4375;52.486;13.424;2023-02-07T16:57:50;1.60;99.90
8676;DHT22;4375;52.486;13.424;2023-02-07T17:00:23;1.60;99.90
8676;DHT22;4375;52.486;13.424;2023-02-07T17:02:50;1.50;99.90
8676;DHT22;4375;52.486;13.424;2023-02-07T17:05:17;1.60;99.90
8676;DHT22;4375;52.486;13.424;2023-02-07T17:07:43;1.60;99.90
8676;DHT22;4375;52.486;13.424;2023-02-07T17:10:24;1.40;99.90
8676;DHT22;4375;52.486;13.424;2023-02-07T17:12:50;1.50;99.90
8676;DHT22;4375;52.486;13.424;2023-02-07T17:15:16;1.40;99.90
8676;DHT22;4375;52.486;13.424;2023-02-07T17:17:42;1.30;99.90
8676;DHT22;4375;52.486;13.424;2023-02-07T17:20:28;1.30;99.90
8676;DHT22;4375;52.486;13.424;2023-02-07T17:22:55;1.40;99.90
8676;DHT22;4375;52.486;13.424;2023-02-07T17:25:23;1.30;99.90
8676;DHT22;4375;52.486;13.424;2023-02-07T17:27:50;1.40;99.90
8676;DHT22;4375;52.486;13.424;2023-02-07T17:30:23;1.40;99.90
8676;DHT22;4375;52.486;13.424;2023-02-07T17:32:49;1.50;99.90
8676;DHT22;4375;52.486;13.424;2023-02-07T17:35:14;1.60;99.90
8676;DHT22;4375;52.486;13.424;2023-02-07T17:37:41;1.60;99.90
8676;DHT22;4375;52.486;13.424;2023-02-07T17:40:28;1.70;99.90
8676;DHT22;4375;52.486;13.424;2023-02-07T17:42:54;1.70;99.90
8676;DHT22;4375;52.486;13.424;2023-02-07T17:45:20;1.70;99.90
8676;DHT22;4375;52.486;13.424;2023-02-07T17:47:46;1.60;99.90
8676;DHT22;4375;52.486;13.424;2023-02-07T17:50:25;1.60;99.90
8676;DHT22;4375;52.486;13.424;2023-02-07T17:52:50;1.60;99.90
8676;DHT22;4375;52.486;13.424;2023-02-07T17:55:16;1.50;99.90
8676;DHT22;4375;52.486;13.424;2023-02-07T17:57:43;1.60;99.90
8676;DHT22;4375;52.486;13.424;2023-02-07T18:00:20;1.60;99.90
8676;DHT22;4375;52.486;13.424;2023-02-07T18:02:46;1.60;99.90
8676;DHT22;4375;52.486;13.424;2023-02-07T18:05:13;1.50;99.90
8676;DHT22;4375;52.486;13.424;2023-02-07T18:07:38;1.60;99.90
8676;DHT22;4375;52.486;13.424;2023-02-07T18:10:05;1.60;99.90
8676;DHT22;4375;52.486;13.424;2023-02-07T18:12:32;1.50;99.90
8676;DHT22;4375;52.486;13.424;2023-02-07T18:14:58;1.50;99.90
8676;DHT22;4375;52.486;13.424;2023-02-07T18:17:24;1.50;99.90
8676;DHT22;4375;52.486;13.424;2023-02-07T18:19:50;1.50;99.90
8676;DHT22;4375;52.486;13.424;2023-02-07T18:22:16;1.40;99.90
8676;DHT22;4375;52.486;13.424;2023-02-07T18:24:42;1.40;99.90
8676;DHT22;4375;52.486;13.424;2023-02-07T18:27:07;1.30;99.90